Time;durP1;ratioP1;P1;durP2;ratioP2;P2;SDS_P1;SDS_P2;PMS_P1;PMS_P2;Temp;Humidity;BMP_temperature;BMP_pressure;BME280_temperature;BME280_humidity;BME280_pressure;Samples;Min_cycle;Max_cycle;Signal;HPM_P1;HPM_P2
2021/07/31 00:00:18;;;;;;;11.95;6.45;;;;;;;19.59;67.04;100644.25;1829999;78;21066;-60
2021/07/31 00:02:48;;;;;;;12.63;7.12;;;;;;;19.57;67.01;100639.52;1830180;78;21140;-60
2021/07/31 00:05:17;;;;;;;12.78;7.87;;;;;;;19.55;67.05;100646.81;1829943;77;21504;-60
2021/07/31 00:07:46;;;;;;;14.18;6.80;;;;;;;19.48;67.30;100646.92;1830163;78;21165;-60
2021/07/31 00:10:14;;;;;;;13.85;7.28;;;;;;;19.44;67.51;100642.77;1830074;78;21050;-60
2021/07/31 00:12:43;;;;;;;10.45;8.00;;;;;;;19.43;67.57;100645.09;1830051;77;21077;-61
2021/07/31 00:15:12;;;;;;;12.90;7.10;;;;;;;19.38;67.80;100636.58;1830126;78;21126;-60
2021/07/31 00:17:41;;;;;;;10.95;6.58;;;;;;;19.36;67.75;100638.52;1830140;78;21066;-59
2021/07/31 00:20:11;;;;;;;12.88;7.20;;;;;;;19.33;68.00;100632.08;1830082;77;21131;-60
2021/07/31 00:22:40;;;;;;;12.55;6.90;;;;;;;19.31;68.03;100634.02;1830253;77;21037;-60
2021/07/31 00:25:09;;;;;;;10.53;6.97;;;;;;;19.26;68.15;100627.72;1830150;77;21178;-60
2021/07/31 00:27:37;;;;;;;11.50;7.33;;;;;;;19.21;68.35;100629.88;1830113;77;21477;-60
2021/07/31 00:30:07;;;;;;;14.10;7.10;;;;;;;19.17;68.39;100630.60;1830124;78;21097;-60
2021/07/31 00:32:36;;;;;;;11.25;7.20;;;;;;;19.13;68.50;100627.81;1830211;78;21061;-60
2021/07/31 00:35:05;;;;;;;11.93;8.08;;;;;;;19.12;68.41;100628.77;1830103;77;21061;-60
2021/07/31 00:37:34;;;;;;;10.53;7.20;;;;;;;19.10;68.53;100625.36;1830029;78;21066;-61
2021/07/31 00:40:03;;;;;;;8.70;6.42;;;;;;;19.08;68.59;100621.97;1830158;78;21065;-60
2021/07/31 00:42:32;;;;;;;12.00;6.83;;;;;;;19.06;68.41;100627.91;1830253;78;21496;-60
2021/07/31 00:45:01;;;;;;;10.63;6.62;;;;;;;19.01;68.46;100619.40;1830215;78;21449;-60
2021/07/31 00:47:30;;;;;;;11.22;6.62;;;;;;;19.00;68.50;100621.23;1830246;78;21041;-60
2021/07/31 00:50:00;;;;;;;10.35;6.42;;;;;;;18.97;68.76;100619.27;1830415;78;21112;-60
2021/07/31 00:52:29;;;;;;;7.37;5.75;;;;;;;18.92;68.61;100620.94;1830174;78;21186;-60
2021/07/31 00:55:00;;;;;;;13.95;6.80;;;;;;;18.83;68.90;100619.84;1830223;78;21513;-60
2021/07/31 00:57:31;;;;;;;10.50;6.10;;;;;;;18.77;69.23;100624.25;1830578;77;21159;-60
2021/07/31 01:00:18;;;;;;;11.68;7.30;;;;;;;18.68;69.09;100616.48;1830258;77;21172;-60
2021/07/31 01:02:47;;;;;;;8.88;6.35;;;;;;;18.59;69.76;100616.30;1830179;78;21086;-60
2021/07/31 01:05:15;;;;;;;12.93;7.83;;;;;;;18.55;69.96;100620.17;1830256;78;21089;-60
2021/07/31 01:07:45;;;;;;;11.63;7.03;;;;;;;18.50;70.12;100612.53;1830310;78;21058;-60
2021/07/31 01:10:14;;;;;;;11.00;6.53;;;;;;;18.49;70.05;100616.15;1830303;78;21077;-60
2021/07/31 01:12:45;;;;;;;9.53;6.95;;;;;;;18.45;70.27;100618.19;1830247;78;21061;-60
2021/07/31 01:15:15;;;;;;;10.80;6.65;;;;;;;18.41;70.37;100614.05;1830211;78;21453;-60
2021/07/31 01:17:44;;;;;;;11.78;6.60;;;;;;;18.40;70.31;100620.83;1830183;76;21179;-59
2021/07/31 01:20:14;;;;;;;9.58;6.30;;;;;;;18.37;70.33;100621.05;1830406;77;21066;-60
2021/07/31 01:22:44;;;;;;;14.90;7.10;;;;;;;18.32;70.72;100623.58;1830500;77;21117;-60
2021/07/31 01:25:13;;;;;;;14.95;7.35;;;;;;;18.29;70.85;100624.28;1830249;78;21135;-60
2021/07/31 01:27:43;;;;;;;15.13;7.10;;;;;;;18.28;71.05;100627.92;1830136;77;21081;-61
2021/07/31 01:30:13;;;;;;;9.55;7.17;;;;;;;18.25;71.17;100625.47;1830404;78;21044;-60
2021/07/31 01:32:42;;;;;;;12.20;6.75;;;;;;;18.22;71.39;100627.89;1830231;78;21152;-60
2021/07/31 01:35:11;;;;;;;12.10;6.58;;;;;;;18.20;71.33;100622.28;1830196;78;21517;-60
2021/07/31 01:37:40;;;;;;;11.50;7.03;;;;;;;18.18;71.20;100627.72;1830260;78;21168;-60
2021/07/31 01:40:10;;;;;;;12.33;7.40;;;;;;;18.16;70.99;100621.66;1830255;78;21152;-62
2021/07/31 01:42:39;;;;;;;11.88;8.03;;;;;;;18.16;70.87;100622.98;1830229;78;21045;-60
2021/07/31 01:45:09;;;;;;;11.45;7.00;;;;;;;18.15;70.54;100627.97;1845795;77;21509;-60
2021/07/31 01:47:40;;;;;;;12.65;7.00;;;;;;;18.15;70.73;100623.97;1830230;77;21630;-60
2021/07/31 01:50:10;;;;;;;12.70;7.50;;;;;;;18.18;70.95;100624.22;1830212;78;21129;-60
2021/07/31 01:52:40;;;;;;;15.10;7.17;;;;;;;18.18;70.99;100629.55;1830494;77;21110;-61
2021/07/31 01:55:09;;;;;;;11.05;7.12;;;;;;;18.19;71.00;100628.11;1845618;77;21034;-60
2021/07/31 01:57:38;;;;;;;16.00;7.67;;;;;;;18.20;71.14;100624.46;1830354;78;21029;-60
2021/07/31 02:00:21;;;;;;;11.15;6.28;;;;;;;18.22;71.03;100627.02;1830192;78;21607;-60
2021/07/31 02:02:54;;;;;;;11.35;6.67;;;;;;;18.20;71.19;100622.28;1829999;77;21572;-60
2021/07/31 02:05:24;;;;;;;10.82;6.90;;;;;;;18.19;71.19;100619.27;1830319;78;21223;-60
2021/07/31 02:07:55;;;;;;;14.68;7.72;;;;;;;18.16;71.39;100618.99;1830203;77;21564;-60
2021/07/31 02:10:24;;;;;;;10.53;6.33;;;;;;;18.17;71.41;100625.16;1830233;78;21086;-60
2021/07/31 02:12:54;;;;;;;17.77;8.58;;;;;;;18.17;71.16;100627.37;1830244;78;21156;-60
2021/07/31 02:15:25;;;;;;;16.42;8.35;;;;;;;18.16;71.30;100621.66;1830107;78;21561;-60
2021/07/31 02:17:56;;;;;;;12.78;7.33;;;;;;;18.13;71.38;100625.41;1830268;77;21282;-60
2021/07/31 02:20:26;;;;;;;11.55;8.10;;;;;;;18.12;71.58;100625.02;1830368;78;21152;-60
2021/07/31 02:22:56;;;;;;;10.68;7.30;;;;;;;18.08;71.74;100624.88;1829802;77;21110;-60
2021/07/31 02:25:30;;;;;;;13.08;7.28;;;;;;;18.07;71.65;100621.84;1805081;78;21100;-60
2021/07/31 02:28:16;;;;;;;11.40;5.45;;;;;;;18.04;71.76;100624.74;1830116;78;21152;-60
2021/07/31 02:30:45;;;;;;;11.73;7.95;;;;;;;18.01;71.76;100631.61;1830203;78;21058;-60
2021/07/31 02:33:15;;;;;;;10.93;7.00;;;;;;;17.99;72.05;100624.22;1830296;78;21607;-60
2021/07/31 02:35:44;;;;;;;13.18;8.00;;;;;;;17.95;72.31;100634.73;1830202;78;21081;-60
2021/07/31 02:38:31;;;;;;;15.32;7.58;;;;;;;17.93;72.49;100635.32;1830046;78;21078;-62
2021/07/31 02:41:00;;;;;;;11.22;6.75;;;;;;;17.93;72.38;100645.98;1845574;77;21074;-60
2021/07/31 02:43:29;;;;;;;11.75;6.05;;;;;;;17.93;72.38;100644.65;1830343;78;21139;-60
2021/07/31 02:46:06;;;;;;;9.00;6.33;;;;;;;17.92;72.34;100647.77;1830188;77;21505;-60
2021/07/31 02:48:36;;;;;;;7.55;5.95;;;;;;;17.91;72.52;100643.91;1830181;78;21152;-60
2021/07/31 02:51:12;;;;;;;19.90;7.15;;;;;;;17.91;72.39;100650.56;1830205;77;21057;-61
2021/07/31 02:53:58;;;;;;;13.25;8.05;;;;;;;17.99;72.33;100644.20;1830167;78;21155;-60
2021/07/31 02:56:29;;;;;;;12.47;8.00;;;;;;;18.10;72.50;100642.09;1830110;77;21158;-60
2021/07/31 02:58:59;;;;;;;14.35;7.28;;;;;;;18.19;72.35;100648.58;1830207;78;21085;-60
2021/07/31 03:01:28;;;;;;;13.80;6.92;;;;;;;18.27;72.20;100651.03;1830094;78;21512;-61
2021/07/31 03:03:57;;;;;;;12.25;7.47;;;;;;;18.46;71.67;100653.23;1830175;78;21125;-60
2021/07/31 03:06:27;;;;;;;13.98;6.80;;;;;;;18.68;70.99;100648.95;1830184;78;21093;-60
2021/07/31 03:08:56;;;;;;;9.20;6.75;;;;;;;18.84;70.44;100647.36;1830308;78;21085;-60
2021/07/31 03:11:25;;;;;;;14.53;7.05;;;;;;;19.01;69.60;100654.09;1830153;78;21061;-60
2021/07/31 03:13:55;;;;;;;8.93;6.45;;;;;;;19.18;68.96;100656.34;1830163;78;21520;-61
2021/07/31 03:16:25;;;;;;;15.55;6.75;;;;;;;19.32;68.74;100661.09;1830324;77;21560;-60
2021/07/31 03:18:55;;;;;;;9.43;6.03;;;;;;;19.41;68.43;100660.37;1830406;77;21130;-61
2021/07/31 03:21:25;;;;;;;10.00;5.45;;;;;;;19.47;68.12;100651.88;1830152;78;21065;-61
2021/07/31 03:24:06;;;;;;;15.40;6.08;;;;;;;19.54;67.97;100663.79;1830653;77;21105;-60
2021/07/31 03:26:34;;;;;;;7.60;6.12;;;;;;;19.64;67.62;100657.23;1830149;78;21026;-60
2021/07/31 03:29:04;;;;;;;9.28;6.15;;;;;;;19.72;67.11;100667.34;1830193;77;21551;-61
2021/07/31 03:31:34;;;;;;;11.60;5.45;;;;;;;19.79;66.71;100663.22;1830198;78;21128;-60
2021/07/31 03:34:03;;;;;;;12.10;6.33;;;;;;;19.90;66.09;100663.70;1830283;77;21143;-60
2021/07/31 03:36:32;;;;;;;15.28;5.17;;;;;;;19.98;65.83;100663.47;1830167;78;21085;-61
2021/07/31 03:39:02;;;;;;;8.25;5.33;;;;;;;20.10;65.35;100659.45;1829371;77;21111;-62
2021/07/31 03:41:32;;;;;;;7.37;5.28;;;;;;;20.13;64.86;100656.53;1830151;77;21129;-60
2021/07/31 03:44:00;;;;;;;9.83;4.90;;;;;;;20.19;64.58;100660.88;1830197;78;21097;-60
2021/07/31 03:46:31;;;;;;;8.85;5.33;;;;;;;20.32;64.35;100667.42;1830192;78;21141;-60
2021/07/31 03:49:01;;;;;;;8.55;5.50;;;;;;;20.46;63.68;100664.13;1830162;78;21040;-60
2021/07/31 03:51:31;;;;;;;10.10;4.67;;;;;;;20.61;63.14;100660.22;1830069;77;21591;-61
2021/07/31 03:54:00;;;;;;;9.18;5.67;;;;;;;20.75;62.91;100663.07;1830459;78;21520;-60
2021/07/31 03:56:29;;;;;;;6.92;4.47;;;;;;;20.87;62.36;100665.23;1830100;78;21086;-61
2021/07/31 03:58:59;;;;;;;9.05;4.72;;;;;;;20.93;62.12;100664.70;1830271;77;21121;-61
2021/07/31 04:01:28;;;;;;;10.13;6.10;;;;;;;21.04;62.14;100664.65;1830158;78;21167;-61
2021/07/31 04:03:59;;;;;;;10.35;5.37;;;;;;;21.21;62.05;100668.59;1830358;77;21105;-61
2021/07/31 04:06:28;;;;;;;7.87;5.25;;;;;;;21.36;61.99;100663.26;1830419;78;21588;-61
2021/07/31 04:09:15;;;;;;;21.40;8.35;;;;;;;21.59;61.78;100673.34;1830118;78;21110;-61
2021/07/31 04:11:51;;;;;;;11.55;5.40;;;;;;;21.88;61.48;100672.64;1808332;78;21132;-60
2021/07/31 04:14:38;;;;;;;12.78;7.00;;;;;;;22.21;61.13;100681.88;1830018;78;21152;-61
2021/07/31 04:17:08;;;;;;;16.12;6.90;;;;;;;22.54;60.58;100685.56;1830505;77;21575;-61
2021/07/31 04:19:37;;;;;;;9.58;5.60;;;;;;;22.85;59.76;100679.23;1830356;78;21173;-61
2021/07/31 04:22:06;;;;;;;22.05;9.00;;;;;;;23.15;58.56;100686.80;1832588;78;21160;-60
2021/07/31 04:24:37;;;;;;;10.98;6.20;;;;;;;23.35;58.05;100681.78;1833038;77;21154;-59
2021/07/31 04:27:06;;;;;;;7.08;5.30;;;;;;;23.60;57.67;100684.31;1832464;78;21571;-60
2021/07/31 04:29:35;;;;;;;11.20;5.25;;;;;;;23.78;56.79;100683.56;1832582;78;21085;-60
2021/07/31 04:32:04;;;;;;;7.08;4.65;;;;;;;23.91;56.68;100684.61;1832589;78;21165;-60
2021/07/31 04:34:33;;;;;;;7.62;4.78;;;;;;;24.11;56.60;100680.83;1832700;77;21151;-60
2021/07/31 04:37:03;;;;;;;10.50;5.50;;;;;;;24.27;56.28;100683.72;1832586;78;21139;-60
2021/07/31 04:39:32;;;;;;;7.78;5.72;;;;;;;24.41;56.01;100681.00;1832548;77;21058;-61
2021/07/31 04:42:01;;;;;;;9.10;5.58;;;;;;;24.58;55.65;100682.05;1832609;78;21511;-61
2021/07/31 04:44:30;;;;;;;12.03;5.22;;;;;;;24.79;55.40;100684.97;1832799;78;21139;-61
2021/07/31 04:46:59;;;;;;;7.47;4.87;;;;;;;25.00;55.21;100672.01;1832618;78;21164;-60
2021/07/31 04:49:27;;;;;;;10.45;5.15;;;;;;;25.17;54.91;100679.72;1832582;78;21061;-60
2021/07/31 04:51:56;;;;;;;9.60;5.05;;;;;;;25.45;54.60;100686.34;1832544;78;21042;-61
2021/07/31 04:54:25;;;;;;;8.10;4.90;;;;;;;25.60;53.94;100685.27;1832572;78;21050;-61
2021/07/31 04:56:54;;;;;;;8.30;5.17;;;;;;;25.76;53.42;100683.17;1832741;78;21064;-60
2021/07/31 04:59:22;;;;;;;12.28;5.03;;;;;;;25.99;53.36;100681.64;1832665;78;21077;-60
2021/07/31 05:01:51;;;;;;;6.80;4.50;;;;;;;26.32;53.03;100684.95;1832635;78;21209;-60
2021/07/31 05:04:20;;;;;;;7.15;4.47;;;;;;;26.63;52.31;100680.34;1832585;78;21093;-61
2021/07/31 05:06:48;;;;;;;10.18;4.87;;;;;;;26.91;51.54;100683.08;1832474;78;21085;-60
2021/07/31 05:09:20;;;;;;;8.53;5.03;;;;;;;27.23;51.14;100684.08;1832707;77;21089;-60
2021/07/31 05:11:48;;;;;;;6.45;4.62;;;;;;;27.52;50.48;100682.73;1832529;77;21049;-61
2021/07/31 05:14:16;;;;;;;10.23;4.72;;;;;;;27.81;49.51;100682.64;1832566;78;21156;-60
2021/07/31 05:16:46;;;;;;;11.83;4.55;;;;;;;28.08;48.87;100686.81;1832646;78;21163;-61
2021/07/31 05:19:15;;;;;;;6.25;4.28;;;;;;;28.28;48.66;100685.35;1832471;78;21038;-61
2021/07/31 05:21:44;;;;;;;10.00;4.30;;;;;;;28.56;48.03;100690.83;1831007;78;21081;-60
2021/07/31 05:24:13;;;;;;;11.38;4.25;;;;;;;28.81;47.67;100684.22;1830315;78;21516;-61
2021/07/31 05:26:42;;;;;;;11.35;4.22;;;;;;;29.14;47.06;100681.28;1830369;78;21116;-61
2021/07/31 05:29:11;;;;;;;8.73;4.35;;;;;;;29.52;46.88;100684.47;1830269;78;21512;-61
2021/07/31 05:31:39;;;;;;;8.20;4.92;;;;;;;29.85;45.31;100686.33;1830242;77;21062;-61
2021/07/31 05:34:08;;;;;;;7.05;3.90;;;;;;;30.17;44.75;100684.23;1830191;78;21058;-61
2021/07/31 05:36:38;;;;;;;10.78;4.40;;;;;;;30.34;43.25;100683.02;1830198;78;21203;-61
2021/07/31 05:39:07;;;;;;;8.18;4.15;;;;;;;30.42;42.92;100680.70;1830236;78;21058;-61
2021/07/31 05:41:35;;;;;;;8.83;3.85;;;;;;;30.57;42.62;100690.99;1830188;78;21128;-61
2021/07/31 05:44:04;;;;;;;12.23;5.05;;;;;;;30.87;42.46;100681.89;1830123;78;21123;-62
2021/07/31 05:46:33;;;;;;;8.20;4.97;;;;;;;31.18;41.48;100683.75;1830329;78;21029;-61
2021/07/31 05:49:02;;;;;;;16.57;7.28;;;;;;;31.24;40.67;100679.93;1830237;78;21096;-61
2021/07/31 05:51:30;;;;;;;9.08;4.80;;;;;;;31.53;40.88;100681.64;1830187;78;21074;-61
2021/07/31 05:53:59;;;;;;;8.95;5.78;;;;;;;31.85;40.36;100681.50;1830246;78;21109;-61
2021/07/31 05:56:28;;;;;;;8.13;4.35;;;;;;;31.96;39.62;100684.70;1830225;78;21082;-63
2021/07/31 05:58:57;;;;;;;11.68;8.73;;;;;;;32.12;39.54;100692.56;1830138;78;21136;-61
2021/07/31 06:01:25;;;;;;;8.25;3.67;;;;;;;32.32;39.29;100688.03;1830214;78;21042;-61
2021/07/31 06:03:54;;;;;;;9.73;5.67;;;;;;;32.52;38.84;100692.71;1830339;77;21073;-61
2021/07/31 06:06:23;;;;;;;10.78;4.45;;;;;;;32.59;36.23;100687.29;1830228;78;21108;-61
2021/07/31 06:08:51;;;;;;;7.17;4.28;;;;;;;32.68;36.82;100691.00;1830330;78;21090;-61
2021/07/31 06:11:20;;;;;;;11.18;4.58;;;;;;;32.95;36.94;100680.11;1830122;77;21073;-61
2021/07/31 06:13:49;;;;;;;7.97;3.47;;;;;;;32.97;36.33;100682.10;1830199;78;21089;-61
2021/07/31 06:16:18;;;;;;;6.65;3.58;;;;;;;33.09;36.23;100683.16;1830229;77;21082;-61
2021/07/31 06:18:46;;;;;;;6.33;3.35;;;;;;;33.35;35.55;100671.95;1830458;77;21081;-61
2021/07/31 06:21:17;;;;;;;8.58;4.10;;;;;;;33.47;35.02;100678.42;1830615;77;21066;-62
2021/07/31 06:23:46;;;;;;;8.40;4.47;;;;;;;33.54;33.65;100672.13;1832331;77;21101;-62
2021/07/31 06:26:15;;;;;;;6.60;3.83;;;;;;;33.57;33.82;100674.41;1832529;78;21097;-61
2021/07/31 06:28:43;;;;;;;7.67;4.22;;;;;;;33.69;33.31;100673.28;1832639;78;21483;-61
2021/07/31 06:31:12;;;;;;;11.48;6.08;;;;;;;33.76;33.45;100677.66;1832519;78;21191;-61
2021/07/31 06:33:41;;;;;;;8.80;5.20;;;;;;;34.04;33.44;100676.52;1832564;78;21167;-61
2021/07/31 06:36:10;;;;;;;5.50;3.33;;;;;;;34.16;32.58;100675.30;1832535;78;21554;-62
2021/07/31 06:38:38;;;;;;;7.85;3.12;;;;;;;34.06;32.14;100674.94;1832464;78;21133;-61
2021/07/31 06:41:07;;;;;;;3.95;2.58;;;;;;;34.03;31.61;100677.55;1832547;78;21128;-61
2021/07/31 06:43:36;;;;;;;7.15;3.65;;;;;;;33.97;30.24;100676.53;1832527;77;21085;-61
2021/07/31 06:46:14;;;;;;;6.28;3.17;;;;;;;33.97;30.24;100676.53;1832522;78;21571;-61
2021/07/31 06:48:43;;;;;;;4.08;2.80;;;;;;;34.23;29.81;100674.77;1832436;78;21108;-62
2021/07/31 06:51:15;;;;;;;4.83;2.83;;;;;;;34.23;29.81;100674.77;1832531;78;21484;-61
2021/07/31 06:53:43;;;;;;;7.15;4.10;;;;;;;34.14;28.88;100671.44;1832623;78;21109;-61
2021/07/31 06:56:12;;;;;;;9.50;3.35;;;;;;;34.23;29.54;100671.53;1832575;78;21485;-61
2021/07/31 06:58:41;;;;;;;5.35;3.10;;;;;;;34.39;29.46;100668.80;1832498;78;21156;-61
2021/07/31 07:01:12;;;;;;;5.22;2.50;;;;;;;34.88;29.15;100671.02;1832437;78;21512;-62
2021/07/31 07:03:44;;;;;;;5.80;3.12;;;;;;;34.88;29.15;100671.02;1832391;78;21069;-61
2021/07/31 07:06:12;;;;;;;4.62;3.15;;;;;;;35.19;29.26;100664.69;1832689;77;21065;-61
2021/07/31 07:08:41;;;;;;;7.78;4.40;;;;;;;35.57;28.69;100660.95;1832592;78;21082;-61
2021/07/31 07:11:12;;;;;;;5.67;3.30;;;;;;;35.84;28.40;100671.62;1832530;78;21547;-61
2021/07/31 07:13:42;;;;;;;6.92;3.10;;;;;;;36.11;28.72;100666.11;1832578;77;21085;-63
2021/07/31 07:16:10;;;;;;;3.35;2.75;;;;;;;36.38;27.93;100667.16;1832509;78;21441;-61
2021/07/31 07:18:40;;;;;;;4.50;2.87;;;;;;;36.58;26.37;100666.05;1832502;77;21200;-61
2021/07/31 07:21:11;;;;;;;6.10;3.62;;;;;;;36.76;26.80;100666.00;1832558;77;21488;-61
2021/07/31 07:23:39;;;;;;;5.72;3.08;;;;;;;36.77;26.39;100660.80;1832524;78;21065;-61
2021/07/31 07:26:12;;;;;;;7.53;2.60;;;;;;;37.07;26.12;100655.76;1832542;77;21131;-62
2021/07/31 07:28:41;;;;;;;6.70;3.00;;;;;;;37.23;25.37;100657.83;1832521;78;21100;-61
2021/07/31 07:31:15;;;;;;;4.28;2.60;;;;;;;37.04;26.36;100658.45;1832526;77;21078;-61
2021/07/31 07:33:44;;;;;;;8.43;3.05;;;;;;;37.22;25.62;100658.92;1832606;78;21167;-61
2021/07/31 07:36:18;;;;;;;4.08;3.17;;;;;;;37.45;26.16;100651.73;1832639;77;21097;-61
2021/07/31 07:38:47;;;;;;;7.53;2.87;;;;;;;37.61;25.99;100653.74;1832371;78;21042;-62
2021/07/31 07:41:17;;;;;;;6.33;2.87;;;;;;;37.82;24.97;100654.20;1832456;78;21535;-61
2021/07/31 07:43:46;;;;;;;5.60;2.80;;;;;;;37.70;24.84;100647.89;1832477;77;21054;-61
2021/07/31 07:46:16;;;;;;;5.12;2.72;;;;;;;37.88;25.03;100649.09;1832518;78;21140;-61
2021/07/31 07:48:46;;;;;;;5.05;2.50;;;;;;;38.05;24.84;100648.64;1832480;77;21123;-61
2021/07/31 07:51:15;;;;;;;4.08;2.72;;;;;;;38.09;24.84;100653.66;1832660;77;21468;-62
2021/07/31 07:53:44;;;;;;;4.78;2.77;;;;;;;38.31;24.22;100649.16;1832610;78;21183;-61
2021/07/31 07:56:13;;;;;;;5.67;2.35;;;;;;;38.28;23.04;100651.02;1832825;78;21074;-61
2021/07/31 07:58:42;;;;;;;4.08;2.27;;;;;;;38.25;22.56;100650.13;1832560;78;21116;-61
2021/07/31 08:01:11;;;;;;;5.42;2.50;;;;;;;38.43;22.92;100647.16;1832595;78;21053;-61
2021/07/31 08:03:40;;;;;;;5.17;2.90;;;;;;;38.55;23.84;100644.91;1832566;77;21168;-61
2021/07/31 08:06:09;;;;;;;4.03;2.20;;;;;;;38.81;23.44;100642.91;1832556;78;21144;-61
2021/07/31 08:08:37;;;;;;;4.33;2.27;;;;;;;38.98;23.38;100647.57;1832578;78;21062;-61
2021/07/31 08:11:08;;;;;;;3.98;2.45;;;;;;;39.09;23.00;100648.05;1832711;77;21034;-61
2021/07/31 08:13:37;;;;;;;4.85;2.40;;;;;;;39.35;22.10;100644.30;1832908;78;21167;-61
2021/07/31 08:16:06;;;;;;;4.83;2.60;;;;;;;39.59;21.46;100644.09;1832569;77;21097;-61
2021/07/31 08:18:35;;;;;;;7.42;2.40;;;;;;;39.49;21.98;100638.74;1832463;78;21558;-61
2021/07/31 08:21:04;;;;;;;6.15;2.37;;;;;;;39.41;21.29;100635.55;1832599;78;21101;-61
2021/07/31 08:23:33;;;;;;;7.22;2.10;;;;;;;39.31;21.02;100636.25;1832511;78;21601;-61
2021/07/31 08:26:03;;;;;;;5.05;2.70;;;;;;;39.03;21.41;100643.56;1832574;77;21062;-61
2021/07/31 08:28:32;;;;;;;5.40;2.30;;;;;;;39.13;21.24;100638.19;1832567;77;21070;-60
2021/07/31 08:31:01;;;;;;;4.58;2.30;;;;;;;39.01;21.94;100633.31;1832407;78;21497;-60
2021/07/31 08:33:30;;;;;;;3.85;1.95;;;;;;;39.06;20.92;100630.64;1832761;78;21545;-60
2021/07/31 08:36:00;;;;;;;6.15;2.20;;;;;;;38.57;20.78;100637.27;1832583;78;21101;-60
2021/07/31 08:38:28;;;;;;;2.87;1.90;;;;;;;38.63;20.95;100636.81;1832552;78;21054;-60
2021/07/31 08:40:57;;;;;;;6.22;2.37;;;;;;;38.56;19.08;100632.84;1854438;77;21105;-60
2021/07/31 08:43:28;;;;;;;3.72;1.87;;;;;;;38.40;20.37;100633.92;1863545;77;21492;-60
2021/07/31 08:45:58;;;;;;;7.75;4.87;;;;;;;38.63;19.92;100639.02;1863839;77;21058;-60
2021/07/31 08:48:30;;;;;;;6.20;3.10;;;;;;;38.98;20.63;100642.06;1863717;77;21149;-60
2021/07/31 08:51:01;;;;;;;5.22;2.10;;;;;;;39.21;21.19;100631.41;1863623;77;21484;-60
2021/07/31 08:53:31;;;;;;;8.50;4.00;;;;;;;39.46;20.55;100628.22;1864062;77;21050;-60
2021/07/31 08:56:00;;;;;;;5.28;2.10;;;;;;;39.48;19.66;100632.11;1863525;77;21049;-60
2021/07/31 08:58:30;;;;;;;8.05;2.27;;;;;;;39.49;19.40;100640.13;1863613;77;21116;-60
2021/07/31 09:00:58;;;;;;;4.28;2.00;;;;;;;39.30;19.30;100644.21;1863600;77;21520;-60
2021/07/31 09:03:27;;;;;;;4.58;2.40;;;;;;;38.98;19.76;100642.89;1863653;77;21057;-60
2021/07/31 09:05:56;;;;;;;5.15;3.22;;;;;;;38.66;17.91;100642.66;1863751;77;21069;-60
2021/07/31 09:08:25;;;;;;;4.00;1.90;;;;;;;38.62;18.46;100637.34;1863645;77;21183;-61
2021/07/31 09:10:53;;;;;;;4.47;2.17;;;;;;;38.42;17.43;100634.51;1863733;77;21062;-60
2021/07/31 09:13:23;;;;;;;8.13;2.85;;;;;;;38.36;17.86;100640.16;1863662;77;21093;-60
2021/07/31 09:15:54;;;;;;;14.25;5.30;;;;;;;38.15;19.86;100645.27;1863227;77;21086;-60
2021/07/31 09:18:31;;;;;;;8.53;4.65;;;;;;;38.55;20.69;100637.52;1863780;77;21050;-60
2021/07/31 09:21:02;;;;;;;6.72;4.03;;;;;;;38.90;19.18;100632.84;1863441;77;21139;-60
2021/07/31 09:23:46;;;;;;;5.72;2.77;;;;;;;38.68;18.91;100642.38;1863750;77;21054;-60
2021/07/31 09:26:23;;;;;;;3.87;2.25;;;;;;;38.77;18.67;100638.98;1863678;77;21101;-60
2021/07/31 09:29:06;;;;;;;6.05;2.27;;;;;;;38.66;18.67;100637.16;1863793;77;21095;-60
2021/07/31 09:31:34;;;;;;;;;;;;;;;38.68;19.24;100634.98;1866513;77;21085;-60
2021/07/31 09:34:04;;;;;;;4.55;2.75;;;;;;;38.83;18.76;100628.04;1863665;77;20149;-60
2021/07/31 09:36:38;;;;;;;4.40;2.25;;;;;;;38.72;19.84;100633.39;1863730;77;21046;-59
2021/07/31 09:39:09;;;;;;;4.28;2.50;;;;;;;38.76;20.31;100629.05;1863590;77;21069;-60
2021/07/31 09:41:43;;;;;;;4.92;2.35;;;;;;;38.67;20.59;100626.42;1863582;77;21086;-60
2021/07/31 09:44:16;;;;;;;4.35;2.27;;;;;;;38.53;20.60;100624.53;1863838;77;21062;-60
2021/07/31 09:46:51;;;;;;;5.58;2.40;;;;;;;38.52;21.24;100624.77;1863652;77;21167;-60
2021/07/31 09:49:22;;;;;;;5.47;2.83;;;;;;;38.17;21.83;100626.61;1863513;77;21058;-60
2021/07/31 09:51:53;;;;;;;6.90;2.95;;;;;;;37.90;22.70;100619.45;1863869;77;21066;-60
2021/07/31 09:54:23;;;;;;;6.08;2.33;;;;;;;37.75;22.57;100627.40;1863521;77;21054;-60
2021/07/31 09:56:53;;;;;;;3.58;2.85;;;;;;;38.00;22.72;100625.17;1863652;77;21120;-60
2021/07/31 09:59:23;;;;;;;5.55;2.67;;;;;;;38.07;22.47;100628.30;1863612;77;21457;-60
2021/07/31 10:02:01;;;;;;;4.95;2.45;;;;;;;37.81;22.15;100630.54;1863633;77;21108;-60
2021/07/31 10:04:31;;;;;;;7.75;2.40;;;;;;;37.88;23.01;100618.88;1863628;77;21119;-60
2021/07/31 10:07:03;;;;;;;6.62;3.02;;;;;;;37.81;23.44;100616.28;1862141;77;21124;-60
2021/07/31 10:09:33;;;;;;;4.85;2.60;;;;;;;37.57;22.98;100623.72;1863647;77;21022;-60
2021/07/31 10:12:04;;;;;;;5.55;2.27;;;;;;;37.26;23.93;100620.30;1863620;77;21660;-60
2021/07/31 10:14:33;;;;;;;7.05;2.83;;;;;;;37.04;23.59;100631.55;1863650;77;21026;-60
2021/07/31 10:17:02;;;;;;;3.98;2.50;;;;;;;37.04;24.01;100624.70;1863660;77;21503;-60
2021/07/31 10:19:34;;;;;;;5.30;3.10;;;;;;;37.02;23.95;100629.05;1863572;77;21141;-60
2021/07/31 10:22:03;;;;;;;4.28;2.08;;;;;;;36.86;24.37;100633.86;1859142;77;21504;-60
2021/07/31 10:24:35;;;;;;;4.12;2.52;;;;;;;36.67;24.43;100630.39;1862708;77;21086;-60
2021/07/31 10:27:21;;;;;;;4.00;2.47;;;;;;;36.66;24.45;100624.55;1852635;77;21078;-60
2021/07/31 10:29:52;;;;;;;4.42;2.80;;;;;;;36.49;25.37;100610.69;1860833;77;21049;-60
2021/07/31 10:32:24;;;;;;;4.00;2.90;;;;;;;36.32;25.15;100617.39;1860953;77;21571;-60
2021/07/31 10:35:04;;;;;;;6.92;2.40;;;;;;;36.32;25.49;100617.39;1861033;77;21483;-60
2021/07/31 10:37:39;;;;;;;4.00;2.47;;;;;;;36.44;25.39;100620.16;1859049;77;21136;-60
2021/07/31 10:40:09;;;;;;;7.03;2.65;;;;;;;36.35;25.27;100606.48;1860836;77;21094;-61
2021/07/31 10:42:56;;;;;;;4.75;1.80;;;;;;;36.42;24.55;100604.48;1861160;77;21102;-60
2021/07/31 10:45:29;;;;;;;7.15;2.45;;;;;;;36.39;24.38;100598.08;1859824;77;21477;-60
2021/07/31 10:48:02;;;;;;;7.78;2.77;;;;;;;36.16;25.91;100579.64;1861284;77;21117;-60
2021/07/31 10:50:33;;;;;;;5.47;3.12;;;;;;;36.03;25.71;100585.61;1860382;77;21062;-60
2021/07/31 10:53:10;;;;;;;3.65;2.33;;;;;;;36.03;25.92;100577.93;1861035;77;21050;-60
2021/07/31 10:55:41;;;;;;;5.87;2.80;;;;;;;35.98;26.29;100577.24;1860958;77;21030;-60
2021/07/31 10:58:14;;;;;;;5.35;2.33;;;;;;;35.99;26.80;100584.41;1861066;77;21140;-60
2021/07/31 11:00:45;;;;;;;6.35;2.30;;;;;;;36.02;26.18;100598.99;1860977;77;21165;-60
2021/07/31 11:03:28;;;;;;;5.67;2.58;;;;;;;35.84;26.79;100590.81;1861016;77;21497;-60
2021/07/31 11:05:58;;;;;;;4.90;2.33;;;;;;;35.75;27.22;100587.58;1860269;77;21053;-60
2021/07/31 11:08:28;;;;;;;3.67;2.70;;;;;;;35.62;27.65;100576.22;1860909;77;21058;-60
2021/07/31 11:10:58;;;;;;;8.00;2.47;;;;;;;35.51;27.49;100566.88;1860962;77;21124;-60
2021/07/31 11:13:38;;;;;;;7.70;2.72;;;;;;;35.31;28.15;100578.05;1860803;77;21121;-60
2021/07/31 11:16:18;;;;;;;8.83;2.85;;;;;;;35.14;27.89;100568.75;1860928;77;21179;-60
2021/07/31 11:18:51;;;;;;;6.20;2.58;;;;;;;35.02;28.23;100591.89;1860955;77;21058;-60
2021/07/31 11:21:34;;;;;;;7.30;2.60;;;;;;;34.96;28.44;100603.74;1860898;77;21030;-60
2021/07/31 11:24:09;;;;;;;31.62;4.95;;;;;;;35.07;30.64;100593.42;1860844;77;21030;-60
2021/07/31 11:26:57;;;;;;;7.92;3.80;;;;;;;34.87;34.41;100603.19;1859576;77;21595;-60
2021/07/31 11:29:28;;;;;;;14.45;5.10;;;;;;;34.84;34.79;100600.88;1860484;77;21051;-62
2021/07/31 11:32:03;;;;;;;9.43;3.92;;;;;;;34.82;35.46;100596.17;1875833;76;21543;-63
2021/07/31 11:34:40;;;;;;;14.47;3.27;;;;;;;34.94;35.81;100593.02;1887886;76;21815;-63
2021/07/31 11:37:09;;;;;;;26.50;4.30;;;;;;;35.09;35.69;100598.14;1870614;76;21054;-63